Photo de Laille
https://tgftp.nws.noaa.gov/data/observations/metar/stations/LFRN.TXT2020/02/23 02:00 LFRN 230200Z AUTO 20011KT 9999 OVC008 11/10 Q1028 TEMPO 4000 DZ BKN004
Rennes
couvert
Metar : 2020/02/23 02:00 LFRN 230200Z AUTO 20011KT 9999 OVC008 11/10 Q1028 TEMPO 4000 DZ BKN004
Couverture nuageuse : Overcast 800 ft
Pression de 30.36 inHg (1028 hPa)
Humidité : 94%
Température : 52°F (11°C)
Vent de SSW at 13 mph (20 km/h)
Visibilité : 6 miles (10 km)
Nantes
Brume, couvert
Metar : 2020/02/23 02:00 LFRS 230200Z AUTO 23008KT 5000 BR OVC003 10/10 Q1030 NOSIG
Couverture nuageuse : Overcast 300 ft
Traduc : Partly cloudy 700 ft
Pression de 30.42 inHg (1030 hPa)
Humidité : 100%
Température : 50°F (10°C)
Point de rosée : 50°F (10°C)
Vent de SW at 9 mph (15 km/h)
Visibilité : 3 miles (5 km)
Lannion
couvert
Metar : 2020/02/23 02:00 LFRO 230200Z AUTO 22019G29KT 9999 BKN010 OVC018 11/10 Q1026
Couverture nuageuse : Mostly Cloudy 1000 ft Overcast 1800 ft
Traduc : Partly cloudy 700 ft
Pression de 30.3 inHg (1026 hPa)
Humidité : 94%
Température : 52°F (11°C)
Point de rosée : 50°F (10°C)
Vent de SW at 22 mph (35 km/h), gusting to 33 mph (54 km/h)
Visibilité : 6 miles (10 km)
Dinard
couvert
Metar : 2020/02/23 02:00 LFRD 230200Z AUTO 21013KT 9999 OVC011 11/10 Q1026 TEMPO 4000 DZ BKN004 BECMG 22015G25KT
Couverture nuageuse : Overcast 1100 ft
Traduc : Partly cloudy 700 ft
Pression de 30.3 inHg (1026 hPa)
Humidité : 94%
Température : 52°F (11°C)
Point de rosée : 50°F (10°C)
Vent de SSW at 15 mph (24 km/h)
Visibilité : 6 miles (10 km)
Brest
Légère bruine, Brume, couvert
Metar : 2020/02/23 02:00 LFRB 230200Z AUTO 23019KT 3100 -DZ BR OVC002 11/10 Q1027 TEMPO 23020G35KT 0800 -RADZ FG VV///
Couverture nuageuse : Overcast 200 ft
Traduc : Partly cloudy 700 ft
Pression de 30.33 inHg (1027 hPa)
Humidité : 94%
Température : 52°F (11°C)
Point de rosée : 50°F (10°C)
Vent de SW at 22 mph (35 km/h)
Visibilité : 2 miles (3 km)
Quimper
Légère bruine, Brume, couvert
Metar : 2020/02/23 02:00 LFRQ 230200Z AUTO 24014KT 200V270 2100 -DZ BR OVC003 10/10 Q1029
Couverture nuageuse : Overcast 300 ft
Traduc : Partly cloudy 700 ft
Pression de 30.39 inHg (1029 hPa)
Humidité : 100%
Température : 50°F (10°C)
Point de rosée : 50°F (10°C)
Vent de WSW at 16 mph (26 km/h)
Visibilité : 1 mile (2 km)
St Nazaire
couvert
Metar : 2020/02/23 02:00 LFRZ 230200Z AUTO 23015KT 6000 OVC004 11/10 Q1030 TEMPO 23015G27KT 4000 -DZ
Couverture nuageuse : Overcast 400 ft
Traduc : Partly cloudy 700 ft
Pression de 30.42 inHg (1030 hPa)
Humidité : 94%
Température : 52°F (11°C)
Point de rosée : 50°F (10°C)
Vent de SW at 17 mph (28 km/h)
Visibilité : 4 miles (6 km)
St Brieuc
couvert
Metar : 2020/02/22 22:00 LFRT 222200Z AUTO 23011KT 200V260 9999 OVC010 11/10 Q1028
Couverture nuageuse : Overcast 1000 ft
Traduc : Partly cloudy 700 ft
Pression de 30.36 inHg (1028 hPa)
Humidité : 94%
Température : 52°F (11°C)
Point de rosée : 50°F (10°C)
Vent de SW at 13 mph (20 km/h)
Visibilité : 6 miles (10 km)
Lorient
Brume, couvert
Metar : 2020/02/23 02:00 LFRH 230200Z AUTO 24017KT 5000 BR OVC003 11/10 Q1029 TEMPO 24020G30KT 0500 FG VV///
Couverture nuageuse : Overcast 300 ft
Traduc : Partly cloudy 700 ft
Pression de 30.39 inHg (1029 hPa)
Humidité : 94%
Température : 52°F (11°C)
Point de rosée : 50°F (10°C)
Vent de WSW at 20 mph (31 km/h)
Visibilité : 3 miles (5 km)
Vannes-Meucon
Brume, couvert
Metar : 2020/02/23 02:00 LFRV 230200Z AUTO 23010KT 200V260 3300 BR OVC002 10/10 Q1029
Couverture nuageuse : Overcast 200 ft
Traduc : Partly cloudy 700 ft
Pression de 30.39 inHg (1029 hPa)
Humidité : 100%
Température : 50°F (10°C)
Point de rosée : 50°F (10°C)
Vent de SW at 12 mph (19 km/h)
Visibilité : 2 miles (3 km)

 


   Weather Underground PWS IBRETAGN39      Weather Underground PWS IBRETAGN39Retour Météo-Laillé adhérent de Météo-Bretagne et d'Infoclimat. Données mises à jour en temps réel via Météolink Climatologie réalisée sous Wswin et GraphWeather.

Affichage prévisions météo de WeatherUnderground via script PHP de Saratoga.

Copyright 2012-2018